KPBG/PBG METAR and TAF weather

Enter ICAO airport designator
Station Type Date Time Source
KPBG METAR 2021/05/11 21:53 UTC NOAA

KPBG 112153Z AUTO 32011G17KT 10SM FEW050 FEW065 OVC090 10/02 A2992 RMK AO2 SLP133 T01000017


Station Type Date Time Source
KPBG Decoded METAR 2021/05/11 21:53 UTC NOAA

PLATTSBURGH INTERNATIONAL AIRPORT, NY, United States (KPBG) 44-39N 073-28W
May 11, 2021 - 05:53 PM EDT / 2021.05.11 2153 UTC
Wind: from the NW (320 degrees) at 13 MPH (11 KT) gusting to 20 MPH (17 KT):0
Visibility: 10 mile(s):0
Sky conditions: overcast
Temperature: 50.0 F (10.0 C)
Dew Point: 35.1 F (1.7 C)
Relative Humidity: 56%
Pressure (altimeter): 29.92 in. Hg (1013 hPa)
ob: KPBG 112153Z AUTO 32011G17KT 10SM FEW050 FEW065 OVC090 10/02 A2992 RMK AO2 SLP133 T01000017
cycle: 22

Station Type Date Time Source
KPBG TAF 2021/05/11 18:45 UTC NOAA

TAF KPBG 111737Z 1118/1218 28012G19KT P6SM VCSH SCT060
FM120400 29005KT P6SM BKN035
FM121700 33011G18KT P6SM BKN060

Example: see airport list